Sheffield, Vermont
Current Conditions -  °F | °C
As of 12:55 PM on Friday 19 Dec 2014 (Local Time) from KCDA Reporting Station
Overcast Overcast  
Wind Chill: 15°   Ceiling: 1700
Heat Index: 24°   Visibility: 7mi
Dew Point: 17°   Wind: 9mph
Humidity: 75%   Direction: 280°W
Pressure: 29.98"   Gusts: NA
Location:  44.6°N, 72.11°W
Report Text: KCDA 191755Z AUTO 28008KT 7SM OVC017 M04/M08 A2998 RMK AO2 T10431082 11039 21043
Loading
Personal Weather Stations






























Interactive Weather Map New forecast layout! Learn more

10-Day Weather Forecast

Advertisements
Track Severe Weather on mobile